Time;durP1;ratioP1;P1;durP2;ratioP2;P2;SDS_P1;SDS_P2;PMS_P1;PMS_P2;Temp;Humidity;BMP_temperature;BMP_pressure;BME280_temperature;BME280_humidity;BME280_pressure;Samples;Min_cycle;Max_cycle;Signal;HPM_P1;HPM_P2
2021/01/13 00:02:23;;;;;;;7.07;1.80;;;1.80;95.80;;;;;;4983843;28;20144;-42
2021/01/13 00:04:49;;;;;;;6.30;2.05;;;1.70;95.80;;;;;;4984959;28;20038;-43
2021/01/13 00:07:15;;;;;;;4.68;2.03;;;1.70;95.80;;;;;;4984246;28;20081;-47
2021/01/13 00:09:42;;;;;;;5.15;1.85;;;1.70;95.80;;;;;;4985045;28;20018;-43
2021/01/13 00:12:08;;;;;;;4.90;1.88;;;1.60;95.90;;;;;;4984184;28;20050;-42
2021/01/13 00:14:33;;;;;;;4.95;1.90;;;1.60;95.90;;;;;;4984060;28;20030;-41
2021/01/13 00:16:59;;;;;;;5.22;2.25;;;1.60;95.90;;;;;;4984592;28;20034;-43
2021/01/13 00:19:25;;;;;;;5.30;2.33;;;1.60;95.90;;;;;;4982586;28;20352;-42
2021/01/13 00:21:52;;;;;;;6.93;1.73;;;1.60;95.90;;;;;;4984101;28;20042;-43
2021/01/13 00:24:19;;;;;;;6.75;2.03;;;1.60;96.10;;;;;;4983676;28;20057;-43
2021/01/13 00:26:45;;;;;;;4.35;1.90;;;1.60;95.90;;;;;;4982508;28;20042;-43
2021/01/13 00:29:12;;;;;;;6.45;1.83;;;1.60;95.90;;;;;;4984072;28;20077;-44
2021/01/13 00:31:38;;;;;;;4.13;1.70;;;1.50;95.90;;;;;;4987486;28;20034;-41
2021/01/13 00:34:08;;;;;;;5.22;1.83;;;1.50;95.90;;;;;;4986848;28;20026;-43
2021/01/13 00:36:34;;;;;;;4.38;2.10;;;1.50;95.90;;;;;;4986931;28;20145;-42
2021/01/13 00:38:59;;;;;;;4.50;2.10;;;1.40;95.90;;;;;;4987175;28;20133;-42
2021/01/13 00:41:25;;;;;;;7.10;2.00;;;1.40;95.90;;;;;;4986541;28;20418;-43
2021/01/13 00:43:52;;;;;;;5.25;2.45;;;1.40;96.00;;;;;;4987563;28;20053;-43
2021/01/13 00:46:21;;;;;;;4.22;1.92;;;1.40;96.00;;;;;;4986443;28;20576;-43
2021/01/13 00:48:47;;;;;;;4.97;2.08;;;1.30;96.00;;;;;;4987096;28;20076;-43
2021/01/13 00:51:13;;;;;;;4.47;2.20;;;1.30;96.00;;;;;;4986694;28;20030;-43
2021/01/13 00:53:39;;;;;;;5.22;2.05;;;1.30;96.10;;;;;;4987797;28;20026;-42
2021/01/13 00:56:05;;;;;;;3.72;1.70;;;1.30;96.10;;;;;;4986467;28;20078;-43
2021/01/13 00:58:31;;;;;;;7.13;1.88;;;1.30;96.20;;;;;;4986725;28;20041;-42
2021/01/13 01:00:58;;;;;;;4.53;1.63;;;1.30;96.20;;;;;;4986547;28;20057;-42
2021/01/13 01:03:23;;;;;;;4.63;1.65;;;1.30;96.20;;;;;;4986331;28;20034;-42
2021/01/13 01:05:50;;;;;;;6.35;1.70;;;1.30;96.30;;;;;;4986811;28;20057;-43
2021/01/13 01:08:16;;;;;;;4.57;1.60;;;1.30;96.40;;;;;;4985211;28;20153;-44
2021/01/13 01:10:44;;;;;;;5.07;2.15;;;1.40;96.40;;;;;;4986900;28;20050;-43
2021/01/13 01:13:10;;;;;;;3.72;2.22;;;1.50;96.30;;;;;;4985974;28;20477;-44
2021/01/13 01:15:38;;;;;;;5.13;1.42;;;1.60;96.30;;;;;;4985917;28;20044;-43
2021/01/13 01:18:04;;;;;;;5.82;1.90;;;1.70;96.30;;;;;;4986680;28;20137;-42
2021/01/13 01:20:29;;;;;;;6.28;1.60;;;1.80;96.30;;;;;;4985799;28;20137;-44
2021/01/13 01:23:00;;;;;;;4.75;1.30;;;2.00;96.30;;;;;;4986013;28;20030;-42
2021/01/13 01:25:29;;;;;;;4.95;1.63;;;2.10;96.20;;;;;;4986103;28;20022;-42
2021/01/13 01:27:57;;;;;;;3.10;1.27;;;2.20;96.00;;;;;;4986524;28;20034;-42
2021/01/13 01:30:24;;;;;;;5.03;1.50;;;2.20;95.90;;;;;;4985450;28;20030;-42
2021/01/13 01:32:50;;;;;;;3.47;1.27;;;2.30;95.90;;;;;;4986319;28;20514;-42
2021/01/13 01:35:16;;;;;;;5.25;1.20;;;2.30;95.80;;;;;;4985997;28;20038;-42
2021/01/13 01:37:43;;;;;;;3.72;1.15;;;2.30;95.80;;;;;;4985648;28;20064;-42
2021/01/13 01:40:12;;;;;;;3.28;0.98;;;2.40;95.90;;;;;;4986351;28;20042;-42
2021/01/13 01:42:47;;;;;;;3.03;0.90;;;2.40;95.80;;;;;;4984988;28;20030;-42
2021/01/13 01:45:16;;;;;;;3.50;1.10;;;2.40;95.80;;;;;;4965854;28;20031;-42
2021/01/13 01:48:06;;;;;;;4.70;1.20;;;2.40;95.80;;;;;;4982301;28;20081;-41
2021/01/13 01:50:34;;;;;;;4.25;1.05;;;2.40;95.80;;;;;;4966112;28;20063;-42
2021/01/13 01:53:17;;;;;;;4.28;1.00;;;2.50;95.80;;;;;;4982840;28;20210;-43
2021/01/13 01:55:50;;;;;;;4.47;1.00;;;2.50;95.80;;;;;;4986348;28;20030;-42
2021/01/13 01:58:25;;;;;;;3.08;1.08;;;2.50;95.80;;;;;;4984768;28;20038;-42
2021/01/13 02:00:54;;;;;;;2.25;0.88;;;2.50;95.70;;;;;;4985935;28;20320;-43
2021/01/13 02:03:22;;;;;;;2.63;0.80;;;2.40;95.70;;;;;;4984964;28;20027;-43
2021/01/13 02:05:53;;;;;;;2.67;0.90;;;2.40;95.70;;;;;;4966764;28;20099;-43
2021/01/13 02:08:24;;;;;;;2.28;0.70;;;2.40;95.80;;;;;;4980830;28;20117;-43
2021/01/13 02:10:50;;;;;;;3.03;0.90;;;2.40;95.80;;;;;;4985638;28;20080;-43
2021/01/13 02:13:19;;;;;;;3.17;0.60;;;2.40;95.80;;;;;;4984233;28;20157;-43
2021/01/13 02:15:45;;;;;;;1.05;0.50;;;2.40;95.90;;;;;;4985612;28;20862;-42
2021/01/13 02:18:13;;;;;;;4.22;0.70;;;2.30;95.90;;;;;;4984736;28;20037;-42
2021/01/13 02:20:40;;;;;;;3.92;0.88;;;2.30;95.90;;;;;;4985489;28;20208;-42
2021/01/13 02:23:34;;;;;;;2.08;0.80;;;2.30;95.90;;;;;;4985417;28;20040;-42
2021/01/13 02:26:11;;;;;;;3.15;0.93;;;2.30;95.90;;;;;;4985395;28;20073;-42
2021/01/13 02:28:46;;;;;;;4.78;1.23;;;2.20;95.90;;;;;;4984504;28;20174;-42
2021/01/13 02:31:30;;;;;;;4.30;1.05;;;2.20;95.90;;;;;;4985125;28;20396;-42
2021/01/13 02:34:25;;;;;;;4.70;1.40;;;2.10;95.90;;;;;;4985073;28;20165;-42
2021/01/13 02:37:23;;;;;;;6.50;1.25;;;2.10;96.00;;;;;;4957196;28;20066;-42
2021/01/13 02:39:48;;;;;;;3.10;1.50;;;2.00;96.10;;;;;;4983450;28;20528;-42
2021/01/13 02:42:21;;;;;;;4.47;1.30;;;2.10;96.20;;;;;;4984713;28;20114;-42
2021/01/13 02:45:03;;;;;;;5.07;1.40;;;2.10;96.30;;;;;;4985048;28;20533;-42
2021/01/13 02:48:02;;;;;;;7.97;1.92;;;2.20;96.30;;;;;;4984095;28;20041;-43
2021/01/13 02:50:31;;;;;;;4.03;1.23;;;2.30;96.30;;;;;;4984409;28;20046;-41
2021/01/13 02:53:09;;;;;;;4.82;1.08;;;2.30;96.20;;;;;;4984734;28;20029;-42
2021/01/13 02:55:47;;;;;;;3.67;1.00;;;2.30;96.10;;;;;;4983394;28;20133;-43
2021/01/13 02:58:18;;;;;;;4.63;1.20;;;2.30;96.10;;;;;;4984503;28;20034;-43
2021/01/13 03:00:44;;;;;;;5.53;1.35;;;2.30;96.00;;;;;;4984177;28;20129;-42
2021/01/13 03:03:11;;;;;;;5.15;1.35;;;2.30;96.00;;;;;;4984679;28;20164;-42
2021/01/13 03:05:36;;;;;;;8.52;1.63;;;2.20;96.00;;;;;;4984427;28;20028;-42
2021/01/13 03:08:06;;;;;;;2.80;1.10;;;2.20;96.10;;;;;;4984759;28;20028;-42
2021/01/13 03:10:36;;;;;;;6.63;1.60;;;2.20;96.20;;;;;;4984034;28;20022;-42
2021/01/13 03:13:03;;;;;;;5.30;1.48;;;2.20;96.10;;;;;;4965438;28;20047;-42
2021/01/13 03:15:30;;;;;;;6.75;1.42;;;2.20;96.10;;;;;;4978417;28;20740;-43
2021/01/13 03:18:09;;;;;;;6.35;1.33;;;2.20;96.10;;;;;;4984499;28;20061;-43
2021/01/13 03:20:42;;;;;;;6.28;1.33;;;2.20;96.10;;;;;;4984195;28;20176;-43
2021/01/13 03:23:18;;;;;;;;;;;2.20;96.10;;;;;;4984815;28;20057;-43
2021/01/13 03:26:08;;;;;;;3.38;1.30;;;2.10;96.10;;;;;;4984269;28;19909;-42
2021/01/13 03:28:36;;;;;;;6.38;1.88;;;2.10;96.20;;;;;;4964210;28;20080;-43
2021/01/13 03:31:04;;;;;;;3.17;1.80;;;2.10;96.30;;;;;;4978990;28;20057;-43
2021/01/13 03:33:59;;;;;;;4.28;1.45;;;2.20;96.30;;;;;;4983697;28;20042;-42
2021/01/13 03:36:47;;;;;;;6.15;1.70;;;2.30;96.30;;;;;;4982657;28;20050;-43
2021/01/13 03:39:17;;;;;;;3.10;1.50;;;2.40;96.30;;;;;;4963905;28;20025;-45
2021/01/13 03:41:52;;;;;;;6.03;1.83;;;2.40;96.20;;;;;;4981751;28;20122;-44
2021/01/13 03:44:32;;;;;;;5.72;1.50;;;2.50;96.20;;;;;;4983566;28;20030;-44
2021/01/13 03:47:19;;;;;;;4.60;1.50;;;2.50;96.30;;;;;;4984165;28;20052;-43
2021/01/13 03:50:07;;;;;;;7.25;1.58;;;2.60;96.30;;;;;;4982749;28;20022;-43
2021/01/13 03:52:39;;;;;;;5.05;1.27;;;2.70;96.30;;;;;;4974722;28;20034;-42
2021/01/13 03:55:05;;;;;;;4.25;1.10;;;2.80;96.30;;;;;;4984366;28;20018;-43
2021/01/13 03:57:56;;;;;;;3.47;0.98;;;2.90;96.20;;;;;;4982837;28;20038;-43
2021/01/13 04:00:26;;;;;;;3.10;0.90;;;3.00;96.10;;;;;;4983693;28;20068;-43
2021/01/13 04:03:12;;;;;;;3.35;0.98;;;3.00;96.10;;;;;;4983927;28;20113;-44
2021/01/13 04:05:51;;;;;;;3.70;1.13;;;3.10;96.00;;;;;;4986273;28;20353;-44
2021/01/13 04:08:17;;;;;;;4.35;0.95;;;3.20;96.00;;;;;;4985707;28;20505;-42
2021/01/13 04:10:43;;;;;;;5.05;0.80;;;3.20;96.00;;;;;;4988066;28;20026;-43
2021/01/13 04:13:48;;;;;;;4.93;0.88;;;3.30;96.00;;;;;;4987581;28;20417;-42
2021/01/13 04:16:16;;;;;;;1.98;0.90;;;3.40;95.90;;;;;;4987752;28;20134;-43
2021/01/13 04:18:45;;;;;;;8.15;1.23;;;3.40;95.90;;;;;;4987528;28;20061;-41
2021/01/13 04:21:14;;;;;;;7.18;0.95;;;3.40;95.90;;;;;;4987199;28;20253;-42
2021/01/13 04:23:41;;;;;;;4.05;0.90;;;3.40;95.90;;;;;;4984727;28;20026;-41
2021/01/13 04:26:08;;;;;;;4.50;1.27;;;3.40;95.90;;;;;;4987534;28;20042;-42
2021/01/13 04:28:33;;;;;;;4.20;1.05;;;3.40;95.90;;;;;;4986899;28;20080;-42
2021/01/13 04:31:00;;;;;;;4.47;0.80;;;3.40;95.90;;;;;;4988094;28;20373;-42
2021/01/13 04:33:25;;;;;;;5.00;0.80;;;3.40;95.90;;;;;;4986055;28;20034;-42
2021/01/13 04:35:51;;;;;;;2.53;0.90;;;3.40;96.00;;;;;;4987255;28;20401;-41
2021/01/13 04:38:27;;;;;;;3.55;0.73;;;3.40;96.00;;;;;;4986917;28;20034;-42
2021/01/13 04:41:14;;;;;;;5.38;1.02;;;3.50;96.10;;;;;;4987456;28;20045;-42
2021/01/13 04:43:54;;;;;;;9.15;1.15;;;3.50;96.10;;;;;;4987437;28;20026;-42
2021/01/13 04:46:30;;;;;;;3.05;0.93;;;3.40;96.00;;;;;;4967153;28;20026;-42
2021/01/13 04:49:02;;;;;;;3.28;0.80;;;3.40;96.10;;;;;;4985088;28;20030;-43
2021/01/13 04:51:31;;;;;;;7.53;0.88;;;3.40;96.10;;;;;;4986892;28;20143;-43
2021/01/13 04:53:57;;;;;;;2.15;0.70;;;3.40;96.10;;;;;;4986773;28;20030;-43
2021/01/13 04:56:26;;;;;;;3.53;0.88;;;3.50;96.20;;;;;;4986909;28;20030;-43
2021/01/13 04:59:10;;;;;;;4.97;1.08;;;3.40;96.10;;;;;;4986855;28;20050;-43
2021/01/13 05:02:04;;;;;;;1.65;0.70;;;3.40;96.20;;;;;;4986469;28;20049;-43
2021/01/13 05:05:05;;;;;;;2.55;0.50;;;3.40;96.20;;;;;;4986399;28;20117;-43
2021/01/13 05:07:31;;;;;;;3.58;0.90;;;3.40;96.20;;;;;;4986509;28;20034;-43
2021/01/13 05:10:06;;;;;;;4.72;0.77;;;3.40;96.20;;;;;;4986423;28;20037;-43
2021/01/13 05:12:53;;;;;;;4.35;1.00;;;3.40;96.20;;;;;;4986229;28;20520;-43
2021/01/13 05:15:33;;;;;;;3.67;0.90;;;3.30;96.20;;;;;;4985689;28;20037;-43
2021/01/13 05:18:11;;;;;;;4.18;0.90;;;3.20;96.30;;;;;;4986977;28;20042;-43
2021/01/13 05:20:53;;;;;;;2.33;0.70;;;3.10;96.30;;;;;;4984315;28;20026;-43
2021/01/13 05:23:21;;;;;;;3.72;1.02;;;3.10;96.40;;;;;;4985498;28;20046;-44
2021/01/13 05:25:51;;;;;;;4.00;0.98;;;3.00;96.40;;;;;;4986656;28;20177;-43
2021/01/13 05:28:26;;;;;;;3.28;0.88;;;2.90;96.40;;;;;;4985896;28;20022;-42
2021/01/13 05:30:58;;;;;;;4.93;0.80;;;2.90;96.80;;;;;;4983300;28;20040;-44
2021/01/13 05:33:26;;;;;;;3.40;0.75;;;2.90;96.60;;;;;;4986141;28;20034;-43
2021/01/13 05:35:57;;;;;;;2.65;0.88;;;2.80;96.60;;;;;;4984914;28;20026;-43
2021/01/13 05:38:54;;;;;;;6.57;1.38;;;2.80;96.60;;;;;;4985684;28;20056;-43
2021/01/13 05:41:20;;;;;;;1.83;1.05;;;2.80;96.60;;;;;;4983282;28;20046;-42
2021/01/13 05:43:47;;;;;;;3.25;1.20;;;2.70;96.60;;;;;;4986048;28;20071;-42
2021/01/13 05:46:16;;;;;;;3.95;0.85;;;2.70;96.70;;;;;;4984676;28;20030;-44
2021/01/13 05:48:46;;;;;;;4.88;1.40;;;2.60;96.70;;;;;;4986110;28;20027;-43
2021/01/13 05:51:12;;;;;;;4.15;1.20;;;2.60;96.80;;;;;;4985788;28;20117;-43
2021/01/13 05:53:38;;;;;;;4.53;1.42;;;2.60;96.90;;;;;;4986203;28;20186;-43
2021/01/13 05:56:06;;;;;;;4.53;1.40;;;2.70;96.90;;;;;;4985784;28;20557;-43
2021/01/13 05:58:32;;;;;;;9.00;1.92;;;2.60;96.90;;;;;;4965514;28;20456;-43
2021/01/13 06:00:59;;;;;;;8.13;1.60;;;2.70;96.90;;;;;;4980326;28;20125;-45
2021/01/13 06:03:28;;;;;;;6.45;1.55;;;2.70;97.00;;;;;;4984897;28;20046;-44
2021/01/13 06:06:00;;;;;;;4.32;1.67;;;2.70;96.90;;;;;;4985699;28;20034;-43
2021/01/13 06:08:32;;;;;;;5.78;1.70;;;2.70;97.00;;;;;;4985341;28;20030;-43
2021/01/13 06:11:05;;;;;;;5.85;1.58;;;2.70;97.00;;;;;;4985637;28;20023;-43
2021/01/13 06:13:33;;;;;;;3.78;1.42;;;2.70;97.00;;;;;;4985234;28;20081;-43
2021/01/13 06:16:09;;;;;;;6.13;1.73;;;2.70;97.00;;;;;;4985821;28;20532;-43
2021/01/13 06:18:38;;;;;;;7.85;1.98;;;2.70;97.00;;;;;;4985215;28;20695;-44
2021/01/13 06:21:13;;;;;;;4.75;1.83;;;2.70;97.00;;;;;;4985640;28;20065;-43
2021/01/13 06:24:00;;;;;;;7.43;1.85;;;2.70;97.00;;;;;;4986138;28;20030;-42
2021/01/13 06:26:37;;;;;;;6.63;1.55;;;2.60;97.00;;;;;;4984536;28;20026;-43
2021/01/13 06:29:37;;;;;;;6.95;1.80;;;2.60;97.10;;;;;;4985368;28;20106;-41
2021/01/13 06:32:16;;;;;;;6.85;2.42;;;2.60;97.00;;;;;;4985061;28;20556;-43
2021/01/13 06:35:11;;;;;;;7.28;2.05;;;2.60;97.10;;;;;;4985943;28;20101;-42
2021/01/13 06:37:47;;;;;;;4.53;1.90;;;2.60;97.10;;;;;;4985170;28;20141;-43
2021/01/13 06:40:14;;;;;;;8.45;2.13;;;2.60;97.10;;;;;;4985034;28;20037;-43
2021/01/13 06:42:40;;;;;;;11.95;2.22;;;2.60;97.10;;;;;;4985464;28;20038;-43
2021/01/13 06:45:08;;;;;;;6.50;2.00;;;2.60;97.10;;;;;;4985802;28;20081;-43
2021/01/13 06:47:33;;;;;;;8.27;1.75;;;2.70;97.10;;;;;;4984691;28;20069;-42
2021/01/13 06:49:59;;;;;;;5.43;2.28;;;2.70;97.10;;;;;;4985485;28;20058;-43
2021/01/13 06:52:32;;;;;;;3.83;1.92;;;2.70;97.10;;;;;;4984773;28;20474;-43
2021/01/13 06:55:01;;;;;;;5.82;2.08;;;2.70;97.10;;;;;;4985242;28;20026;-44
2021/01/13 06:57:31;;;;;;;7.00;2.00;;;2.70;97.10;;;;;;4985446;28;20092;-45
2021/01/13 06:59:58;;;;;;;5.85;1.90;;;2.70;97.10;;;;;;4983278;28;20091;-44
2021/01/13 07:02:34;;;;;;;5.13;1.35;;;2.70;97.00;;;;;;4977803;28;20361;-43
2021/01/13 07:05:00;;;;;;;6.82;1.85;;;2.70;97.10;;;;;;4985379;28;20076;-43
2021/01/13 07:07:28;;;;;;;6.57;1.50;;;2.70;97.00;;;;;;4984997;28;20046;-42
2021/01/13 07:09:53;;;;;;;6.63;1.55;;;2.70;97.00;;;;;;4984979;28;20026;-43
2021/01/13 07:12:27;;;;;;;6.00;1.45;;;2.70;97.00;;;;;;4984574;28;20109;-43
2021/01/13 07:14:58;;;;;;;4.35;1.40;;;2.70;97.00;;;;;;4984302;28;20073;-43
2021/01/13 07:17:25;;;;;;;5.88;1.45;;;2.70;97.00;;;;;;4984850;28;20038;-42
2021/01/13 07:19:53;;;;;;;5.63;1.70;;;2.70;97.00;;;;;;4983612;28;20046;-44
2021/01/13 07:22:21;;;;;;;3.65;1.40;;;2.70;97.00;;;;;;4974952;28;20041;-42
2021/01/13 07:24:47;;;;;;;4.90;1.50;;;2.60;96.90;;;;;;4983003;28;20049;-42
2021/01/13 07:27:14;;;;;;;4.80;1.25;;;2.60;97.00;;;;;;4981205;28;20124;-42
2021/01/13 07:29:40;;;;;;;7.10;1.33;;;2.60;97.00;;;;;;4980708;28;20088;-42
2021/01/13 07:32:08;;;;;;;5.45;1.33;;;2.60;96.90;;;;;;4983878;28;20397;-42
2021/01/13 07:34:35;;;;;;;5.25;1.50;;;2.60;97.00;;;;;;4982815;28;20108;-42
2021/01/13 07:37:16;;;;;;;9.25;1.58;;;2.60;97.00;;;;;;4984025;28;20870;-42
2021/01/13 07:39:59;;;;;;;6.30;1.50;;;2.50;97.00;;;;;;4980505;28;20089;-42
2021/01/13 07:42:33;;;;;;;7.32;1.77;;;2.50;97.00;;;;;;4988507;28;20030;-42
2021/01/13 07:45:09;;;;;;;3.88;1.20;;;2.50;97.00;;;;;;4989177;28;20033;-42
2021/01/13 07:47:49;;;;;;;5.50;1.60;;;2.50;97.00;;;;;;4989136;28;20034;-42
2021/01/13 07:50:18;;;;;;;4.45;1.42;;;2.50;96.90;;;;;;4987402;28;20076;-43
2021/01/13 07:52:46;;;;;;;3.47;1.55;;;2.50;96.90;;;;;;4988593;28;20400;-43
2021/01/13 07:55:23;;;;;;;7.65;1.67;;;2.40;96.90;;;;;;4987640;28;20058;-43
2021/01/13 07:57:54;;;;;;;6.85;1.95;;;2.40;96.90;;;;;;4988534;28;20054;-42
2021/01/13 08:00:25;;;;;;;4.95;1.60;;;2.40;97.00;;;;;;4985850;28;20021;-41
2021/01/13 08:02:56;;;;;;;4.95;1.95;;;2.40;97.10;;;;;;4988914;28;20397;-41
2021/01/13 08:05:59;;;;;;;6.70;2.17;;;2.40;97.00;;;;;;4988503;28;20392;-43
2021/01/13 08:08:25;;;;;;;9.13;1.77;;;2.40;97.00;;;;;;4969658;28;20038;-43
2021/01/13 08:10:52;;;;;;;4.95;2.28;;;2.40;97.00;;;;;;4987534;28;20048;-42
2021/01/13 08:13:39;;;;;;;4.88;1.60;;;2.40;96.90;;;;;;4988335;28;20050;-43
2021/01/13 08:16:55;;;;;;;7.10;1.60;;;2.40;96.90;;;;;;4988471;28;20137;-42
2021/01/13 08:19:57;;;;;;;4.47;1.40;;;2.40;96.90;;;;;;4988038;28;20030;-42
2021/01/13 08:22:25;;;;;;;5.50;1.73;;;2.40;96.90;;;;;;4980400;28;20026;-43
2021/01/13 08:24:59;;;;;;;6.05;1.98;;;2.30;96.90;;;;;;4988326;28;20038;-42
2021/01/13 08:27:30;;;;;;;6.65;2.30;;;2.30;97.00;;;;;;4988308;28;20054;-44
2021/01/13 08:29:57;;;;;;;7.00;1.85;;;2.30;97.00;;;;;;4988424;28;20113;-42
2021/01/13 08:32:49;;;;;;;4.50;2.05;;;2.30;97.00;;;;;;4987786;28;20828;-42
2021/01/13 08:35:25;;;;;;;6.72;1.90;;;2.30;97.00;;;;;;4987593;28;20050;-42
2021/01/13 08:38:08;;;;;;;7.18;2.08;;;2.30;97.00;;;;;;4988461;28;20066;-42
2021/01/13 08:40:35;;;;;;;4.28;1.80;;;2.30;97.00;;;;;;4987949;28;20046;-42
2021/01/13 08:43:19;;;;;;;6.25;2.20;;;2.30;97.00;;;;;;4988621;28;20030;-42
2021/01/13 08:45:45;;;;;;;4.88;1.80;;;2.30;97.00;;;;;;4987509;28;20030;-43
2021/01/13 08:48:17;;;;;;;5.30;1.85;;;2.30;97.00;;;;;;4987886;28;20031;-43
2021/01/13 08:51:03;;;;;;;3.83;1.90;;;2.30;97.30;;;;;;4987742;28;20484;-41
2021/01/13 08:53:30;;;;;;;6.03;2.05;;;2.30;97.10;;;;;;4987470;28;20041;-43
2021/01/13 08:55:56;;;;;;;7.82;1.98;;;2.40;97.10;;;;;;4988361;28;20479;-42
2021/01/13 08:58:27;;;;;;;5.47;1.85;;;2.40;97.10;;;;;;4988245;28;20038;-44
2021/01/13 09:01:08;;;;;;;2.75;1.60;;;2.40;97.10;;;;;;4988744;28;20433;-42
2021/01/13 09:03:38;;;;;;;5.10;2.15;;;2.40;97.10;;;;;;4978918;28;20184;-41
2021/01/13 09:06:24;;;;;;;9.63;2.20;;;2.60;97.10;;;;;;4988335;28;20073;-43
2021/01/13 09:08:54;;;;;;;8.63;2.20;;;2.60;97.10;;;;;;4980535;28;20034;-42
2021/01/13 09:11:37;;;;;;;7.93;2.10;;;2.70;97.00;;;;;;4988194;28;20077;-42
2021/01/13 09:14:17;;;;;;;;;;;2.80;97.00;;;;;;4987708;28;20124;-41
2021/01/13 09:16:50;;;;;;;4.60;2.13;;;2.80;96.90;;;;;;4988132;28;19910;-41
2021/01/13 09:19:35;;;;;;;3.75;1.98;;;2.80;96.90;;;;;;4988287;28;20807;-42
2021/01/13 09:22:03;;;;;;;6.35;2.38;;;2.90;96.90;;;;;;4987401;28;20037;-43
2021/01/13 09:24:39;;;;;;;8.60;2.58;;;2.90;96.90;;;;;;4988471;28;20045;-42
2021/01/13 09:27:07;;;;;;;5.32;1.92;;;3.00;96.80;;;;;;4988483;28;20011;-43
2021/01/13 09:29:55;;;;;;;6.10;2.10;;;3.10;96.80;;;;;;4987238;28;20488;-41
2021/01/13 09:32:22;;;;;;;4.65;1.73;;;3.10;96.70;;;;;;4987829;28;20049;-43
2021/01/13 09:34:49;;;;;;;4.40;2.00;;;3.10;96.70;;;;;;4988126;28;20026;-41
2021/01/13 09:37:16;;;;;;;4.70;1.75;;;3.20;96.70;;;;;;4987686;28;20117;-42
2021/01/13 09:40:02;;;;;;;6.13;2.05;;;3.20;96.70;;;;;;4988479;28;20109;-41
2021/01/13 09:42:40;;;;;;;5.28;1.65;;;3.30;96.70;;;;;;4987095;28;20133;-43
2021/01/13 09:45:08;;;;;;;9.63;2.05;;;3.40;96.70;;;;;;4988632;28;20030;-42
2021/01/13 09:47:34;;;;;;;8.23;2.50;;;3.40;96.70;;;;;;4987279;28;20033;-42
2021/01/13 09:50:00;;;;;;;5.50;1.90;;;3.60;96.70;;;;;;4987506;28;20101;-42
2021/01/13 09:52:36;;;;;;;5.32;2.00;;;3.70;96.70;;;;;;4987876;28;20103;-46
2021/01/13 09:55:05;;;;;;;6.18;1.75;;;3.80;96.60;;;;;;4988060;28;20029;-42
2021/01/13 09:57:40;;;;;;;6.68;1.88;;;3.90;96.40;;;;;;4986661;28;20053;-42
2021/01/13 10:00:12;;;;;;;7.55;2.35;;;4.00;96.30;;;;;;4988079;28;20105;-41
2021/01/13 10:02:46;;;;;;;4.43;1.88;;;4.00;96.20;;;;;;4982548;28;20018;-43
2021/01/13 10:05:12;;;;;;;6.13;2.17;;;4.10;96.20;;;;;;4983200;28;20045;-43
2021/01/13 10:07:38;;;;;;;6.35;2.13;;;4.10;96.10;;;;;;4986983;28;20391;-42
2021/01/13 10:10:06;;;;;;;5.95;2.20;;;4.10;96.00;;;;;;4987243;28;20135;-42
2021/01/13 10:12:49;;;;;;;9.32;2.33;;;4.10;96.00;;;;;;4986662;28;20156;-42
2021/01/13 10:15:15;;;;;;;6.72;2.20;;;4.10;96.00;;;;;;4986312;28;20031;-43
2021/01/13 10:17:42;;;;;;;5.78;2.20;;;4.10;96.00;;;;;;4978196;28;20046;-42
2021/01/13 10:20:24;;;;;;;8.50;2.60;;;4.10;96.00;;;;;;4980923;28;20026;-43
2021/01/13 10:22:50;;;;;;;5.32;2.15;;;4.10;96.00;;;;;;4973984;28;20046;-43
2021/01/13 10:25:29;;;;;;;6.35;2.20;;;4.20;96.00;;;;;;4983674;28;20022;-43
2021/01/13 10:27:56;;;;;;;7.82;2.40;;;4.30;96.00;;;;;;4986189;28;20026;-44
2021/01/13 10:30:25;;;;;;;8.70;2.45;;;4.40;96.20;;;;;;4980110;28;20015;-42
2021/01/13 10:32:53;;;;;;;7.38;2.15;;;4.40;95.90;;;;;;4985869;28;20073;-43
2021/01/13 10:35:21;;;;;;;6.47;2.17;;;4.50;95.90;;;;;;4985314;28;20034;-43
2021/01/13 10:37:55;;;;;;;7.82;2.05;;;4.60;95.90;;;;;;4985865;28;20454;-43
2021/01/13 10:40:22;;;;;;;4.22;2.00;;;4.60;95.80;;;;;;4986297;28;20018;-43
2021/01/13 10:42:50;;;;;;;4.18;2.00;;;4.70;95.70;;;;;;4986504;28;20053;-43
2021/01/13 10:45:17;;;;;;;5.47;1.88;;;4.70;95.70;;;;;;4985432;28;20080;-43
2021/01/13 10:47:58;;;;;;;8.25;2.72;;;4.70;95.60;;;;;;4986976;28;20030;-43
2021/01/13 10:50:29;;;;;;;5.07;1.95;;;4.80;95.60;;;;;;4986004;28;20137;-41
2021/01/13 10:53:00;;;;;;;7.05;2.40;;;4.80;95.70;;;;;;4985877;28;20492;-43
2021/01/13 10:55:28;;;;;;;8.25;2.15;;;4.90;95.70;;;;;;4985731;28;20069;-43
2021/01/13 10:57:57;;;;;;;5.15;1.92;;;5.00;95.60;;;;;;4986017;28;20042;-43
2021/01/13 11:00:25;;;;;;;6.10;1.90;;;5.10;95.50;;;;;;4984976;28;20030;-43
2021/01/13 11:02:58;;;;;;;6.13;2.08;;;5.20;95.30;;;;;;4985648;28;20061;-43
2021/01/13 11:05:25;;;;;;;8.23;2.13;;;5.20;95.20;;;;;;4985340;28;20026;-41
2021/01/13 11:07:53;;;;;;;10.32;1.98;;;5.20;95.10;;;;;;4985297;28;20058;-42
2021/01/13 11:10:23;;;;;;;7.32;2.30;;;5.20;95.10;;;;;;4985036;28;20027;-42
2021/01/13 11:13:02;;;;;;;6.55;2.28;;;5.30;95.10;;;;;;4986361;28;20081;-43
2021/01/13 11:15:29;;;;;;;7.05;2.13;;;5.30;95.00;;;;;;4987254;28;20369;-43
2021/01/13 11:17:56;;;;;;;5.25;1.83;;;5.40;95.00;;;;;;4985817;28;20038;-42
2021/01/13 11:20:23;;;;;;;10.70;2.25;;;5.50;94.90;;;;;;4970698;28;20061;-43
2021/01/13 11:22:57;;;;;;;11.02;2.25;;;5.70;94.80;;;;;;4984089;28;20108;-42
2021/01/13 11:25:28;;;;;;;5.40;1.88;;;5.80;94.50;;;;;;4978358;28;20089;-43
2021/01/13 11:28:13;;;;;;;7.22;1.77;;;5.80;94.30;;;;;;4982199;28;20041;-44
2021/01/13 11:30:40;;;;;;;8.43;2.17;;;5.90;94.20;;;;;;4983311;28;20400;-43
2021/01/13 11:33:08;;;;;;;6.65;1.83;;;6.00;93.90;;;;;;4986012;28;20030;-43
2021/01/13 11:35:37;;;;;;;6.13;1.73;;;6.00;93.80;;;;;;4984467;28;20081;-43
2021/01/13 11:38:33;;;;;;;11.55;2.00;;;6.00;93.70;;;;;;4986101;28;20038;-46
2021/01/13 11:41:05;;;;;;;8.00;2.58;;;6.10;93.60;;;;;;4985375;28;20397;-42
2021/01/13 11:44:00;;;;;;;4.97;2.20;;;6.10;93.20;;;;;;4978915;28;20040;-44
2021/01/13 11:46:36;;;;;;;4.97;1.67;;;6.10;93.20;;;;;;4970479;28;20399;-43
2021/01/13 11:49:17;;;;;;;5.30;2.00;;;6.10;93.30;;;;;;4975188;28;20189;-46
2021/01/13 11:51:53;;;;;;;6.90;1.70;;;6.10;93.40;;;;;;4985798;28;20044;-43
2021/01/13 11:54:31;;;;;;;3.70;1.65;;;6.10;93.40;;;;;;4985130;28;20026;-41
2021/01/13 11:57:21;;;;;;;7.63;2.05;;;6.00;93.50;;;;;;4984088;28;20358;-42
2021/01/13 11:59:48;;;;;;;8.82;2.17;;;6.10;92.80;;;;;;4985656;28;20042;-43
2021/01/13 12:02:18;;;;;;;8.55;2.28;;;6.00;93.20;;;;;;4984763;28;20089;-42
2021/01/13 12:04:44;;;;;;;10.85;2.20;;;6.10;93.20;;;;;;4983927;28;20053;-42
2021/01/13 12:07:10;;;;;;;6.45;2.10;;;6.10;93.00;;;;;;4984654;28;20386;-43
2021/01/13 12:09:38;;;;;;;13.55;2.20;;;6.10;93.00;;;;;;4973725;28;20026;-42
2021/01/13 12:12:08;;;;;;;7.10;2.20;;;6.10;93.00;;;;;;4985109;28;20101;-42
2021/01/13 12:14:44;;;;;;;7.57;2.30;;;6.20;93.00;;;;;;4984565;28;20041;-42
2021/01/13 12:17:10;;;;;;;8.85;1.90;;;6.10;92.70;;;;;;4984926;28;20039;-42
2021/01/13 12:19:41;;;;;;;10.55;2.60;;;6.10;92.60;;;;;;4985306;28;20031;-43
2021/01/13 12:22:07;;;;;;;5.85;2.05;;;6.10;92.50;;;;;;4985537;28;20023;-43
2021/01/13 12:24:42;;;;;;;10.05;2.00;;;6.00;92.20;;;;;;4984519;28;20092;-43
2021/01/13 12:27:25;;;;;;;5.95;1.50;;;5.90;92.10;;;;;;4988555;28;20041;-43
2021/01/13 12:30:09;;;;;;;;;;;5.80;91.80;;;;;;4986249;28;20026;-43
2021/01/13 12:32:35;;;;;;;4.35;1.65;;;5.70;91.90;;;;;;4988730;28;20012;-43
2021/01/13 12:35:00;;;;;;;5.82;1.70;;;5.70;92.00;;;;;;4988968;28;20165;-42
2021/01/13 12:37:26;;;;;;;2.97;1.30;;;5.70;91.80;;;;;;4988146;28;20125;-41
2021/01/13 12:39:56;;;;;;;6.95;1.77;;;5.80;91.80;;;;;;4988197;28;20035;-43
2021/01/13 12:42:30;;;;;;;7.13;1.42;;;5.90;91.50;;;;;;4983071;28;20119;-42
2021/01/13 12:45:01;;;;;;;4.00;1.52;;;6.00;91.50;;;;;;4983419;28;20079;-42
2021/01/13 12:47:28;;;;;;;6.13;1.58;;;6.10;91.20;;;;;;4976633;28;20027;-42
2021/01/13 12:49:56;;;;;;;6.82;1.60;;;6.20;90.90;;;;;;4985442;28;20104;-42
2021/01/13 12:52:22;;;;;;;7.32;1.60;;;6.20;90.20;;;;;;4987761;28;20472;-42
2021/01/13 12:54:48;;;;;;;6.70;1.77;;;6.30;90.20;;;;;;4988080;28;20037;-43
2021/01/13 12:57:14;;;;;;;6.88;1.55;;;6.30;90.20;;;;;;4988263;28;20034;-43
2021/01/13 12:59:40;;;;;;;8.85;1.20;;;6.40;87.60;;;;;;4987553;28;20030;-42
2021/01/13 13:02:07;;;;;;;5.78;1.10;;;6.30;87.70;;;;;;4988358;28;20037;-43
2021/01/13 13:04:32;;;;;;;3.83;1.30;;;6.30;88.70;;;;;;4988091;28;20034;-43
2021/01/13 13:06:58;;;;;;;4.43;1.42;;;6.20;88.70;;;;;;4988343;28;20026;-42
2021/01/13 13:09:23;;;;;;;7.40;1.10;;;6.20;88.50;;;;;;4987817;28;20643;-43
2021/01/13 13:11:49;;;;;;;4.28;1.02;;;6.10;88.60;;;;;;4988529;28;20449;-43
2021/01/13 13:14:15;;;;;;;6.88;1.92;;;6.10;88.50;;;;;;4986957;28;20066;-42
2021/01/13 13:16:42;;;;;;;7.53;1.40;;;6.00;88.20;;;;;;4988158;28;20034;-43
2021/01/13 13:19:08;;;;;;;5.78;2.13;;;6.00;88.40;;;;;;4988396;28;20341;-43
2021/01/13 13:21:34;;;;;;;5.53;1.60;;;6.10;88.40;;;;;;4983733;28;20034;-43
2021/01/13 13:23:59;;;;;;;4.50;1.25;;;6.00;88.60;;;;;;4988026;28;20625;-43
2021/01/13 13:26:25;;;;;;;5.07;2.15;;;6.00;88.70;;;;;;4986795;28;20092;-42